Time;durP1;ratioP1;P1;durP2;ratioP2;P2;SDS_P1;SDS_P2;PMS_P1;PMS_P2;Temp;Humidity;BMP_temperature;BMP_pressure;BME280_temperature;BME280_humidity;BME280_pressure;Samples;Min_cycle;Max_cycle;Signal;HPM_P1;HPM_P2
2021/01/16 00:00:35;;;;;;;32.63;11.98;;;1.60;93.20;;;;;;5055277;28;20637;-85
2021/01/16 00:03:01;;;;;;;29.02;10.70;;;1.60;93.10;;;;;;5055221;28;20173;-85
2021/01/16 00:05:28;;;;;;;31.85;12.27;;;1.70;92.90;;;;;;5055581;28;20170;-85
2021/01/16 00:08:09;;;;;;;27.48;10.93;;;1.70;92.40;;;;;;5055101;28;20744;-85
2021/01/16 00:10:37;;;;;;;24.98;10.00;;;1.70;92.40;;;;;;5055078;28;20219;-85
2021/01/16 00:13:03;;;;;;;33.33;12.00;;;1.70;92.40;;;;;;5055194;28;20165;-85
2021/01/16 00:15:29;;;;;;;34.03;12.35;;;1.80;92.30;;;;;;5054838;28;20733;-85
2021/01/16 00:18:03;;;;;;;25.63;11.27;;;1.80;91.90;;;;;;5055019;28;20738;-85
2021/01/16 00:20:29;;;;;;;35.80;14.32;;;1.80;92.10;;;;;;5054968;28;20249;-86
2021/01/16 00:22:55;;;;;;;33.15;11.68;;;1.80;91.90;;;;;;5054729;28;20231;-87
2021/01/16 00:25:21;;;;;;;31.67;11.67;;;1.80;91.90;;;;;;5054771;28;20201;-85
2021/01/16 00:27:47;;;;;;;31.77;12.13;;;1.80;91.60;;;;;;5054627;28;20467;-86
2021/01/16 00:30:15;;;;;;;29.63;12.25;;;1.70;91.90;;;;;;5054826;28;20882;-84
2021/01/16 00:32:41;;;;;;;33.92;12.93;;;1.80;92.20;;;;;;5054668;28;20189;-87
2021/01/16 00:35:09;;;;;;;33.28;12.80;;;1.80;92.20;;;;;;5054719;28;20170;-86
2021/01/16 00:37:36;;;;;;;37.45;14.38;;;1.80;92.00;;;;;;5054632;28;20681;-86
2021/01/16 00:40:06;;;;;;;30.35;14.07;;;1.80;92.00;;;;;;5054326;28;20158;-86
2021/01/16 00:42:31;;;;;;;36.05;14.25;;;1.70;92.20;;;;;;5054415;28;20264;-86
2021/01/16 00:44:57;;;;;;;35.20;12.07;;;1.70;92.40;;;;;;5054244;28;20577;-86
2021/01/16 00:47:23;;;;;;;28.45;12.52;;;1.70;92.50;;;;;;5053599;28;20195;-85
2021/01/16 00:49:49;;;;;;;37.40;14.67;;;1.70;92.50;;;;;;5053669;28;20237;-85
2021/01/16 00:52:15;;;;;;;34.50;13.90;;;1.70;92.50;;;;;;5054070;28;20173;-86
2021/01/16 00:54:40;;;;;;;36.53;12.37;;;1.70;92.40;;;;;;5053995;28;20408;-86
2021/01/16 00:57:06;;;;;;;38.20;15.53;;;1.80;92.20;;;;;;5054122;28;20189;-86
2021/01/16 00:59:32;;;;;;;37.43;13.47;;;1.80;92.30;;;;;;5054044;28;20412;-86
2021/01/16 01:01:58;;;;;;;34.77;12.73;;;1.80;92.20;;;;;;5054460;28;20407;-85
2021/01/16 01:04:23;;;;;;;39.17;13.70;;;1.80;92.00;;;;;;5054337;28;20181;-85
2021/01/16 01:06:49;;;;;;;29.50;11.73;;;1.70;92.20;;;;;;5054410;28;20230;-85
2021/01/16 01:09:15;;;;;;;34.80;13.27;;;1.80;92.10;;;;;;5055611;28;20196;-82
2021/01/16 01:11:41;;;;;;;28.40;12.30;;;1.80;92.00;;;;;;5057974;28;20412;-82
2021/01/16 01:14:06;;;;;;;38.37;14.50;;;1.80;92.00;;;;;;5057201;28;20519;-82
2021/01/16 01:16:32;;;;;;;30.50;12.40;;;1.80;91.70;;;;;;5057897;28;20227;-82
2021/01/16 01:18:58;;;;;;;31.43;13.23;;;1.80;91.70;;;;;;5058193;28;20184;-82
2021/01/16 01:21:24;;;;;;;38.40;13.40;;;1.80;91.80;;;;;;5057604;28;20229;-82
2021/01/16 01:23:49;;;;;;;32.17;13.23;;;1.80;91.50;;;;;;5056726;28;20411;-82
2021/01/16 01:26:15;;;;;;;40.03;15.00;;;1.80;92.10;;;;;;5057624;28;20177;-81
2021/01/16 01:28:41;;;;;;;39.97;12.50;;;1.80;92.10;;;;;;5056537;28;20254;-82
2021/01/16 01:31:07;;;;;;;27.30;12.00;;;1.80;92.00;;;;;;5056989;28;20419;-82
2021/01/16 01:33:33;;;;;;;33.97;12.95;;;1.90;92.00;;;;;;5057767;28;20523;-82
2021/01/16 01:35:58;;;;;;;32.80;12.53;;;1.90;91.50;;;;;;5056607;28;20192;-82
2021/01/16 01:38:24;;;;;;;35.90;13.60;;;1.90;91.40;;;;;;5056140;28;20196;-82
2021/01/16 01:40:50;;;;;;;29.43;12.03;;;1.90;91.40;;;;;;5057056;28;20424;-82
2021/01/16 01:43:16;;;;;;;31.77;12.90;;;1.90;91.30;;;;;;5056818;28;20637;-82
2021/01/16 01:45:42;;;;;;;33.80;13.97;;;2.00;91.40;;;;;;5057077;28;20420;-82
2021/01/16 01:48:09;;;;;;;44.38;14.27;;;2.00;91.10;;;;;;5056364;28;20466;-82
2021/01/16 01:50:35;;;;;;;34.33;13.27;;;2.00;90.80;;;;;;5057427;28;20519;-81
2021/01/16 01:53:02;;;;;;;32.20;12.13;;;2.00;90.60;;;;;;5057051;28;20176;-82
2021/01/16 01:55:29;;;;;;;36.83;13.40;;;2.00;90.50;;;;;;5057274;28;21006;-82
2021/01/16 01:57:56;;;;;;;33.45;13.95;;;2.00;90.30;;;;;;5057037;28;20207;-82
2021/01/16 02:00:23;;;;;;;36.78;14.50;;;2.00;90.70;;;;;;5057071;28;20641;-82
2021/01/16 02:02:50;;;;;;;31.17;12.05;;;2.00;90.70;;;;;;5056797;28;20173;-83
2021/01/16 02:05:16;;;;;;;33.63;13.00;;;2.00;90.40;;;;;;5055767;28;20707;-82
2021/01/16 02:07:43;;;;;;;32.47;12.50;;;2.00;90.40;;;;;;5055470;28;20227;-83
2021/01/16 02:10:12;;;;;;;33.10;15.02;;;2.00;90.10;;;;;;5054463;28;20183;-83
2021/01/16 02:12:40;;;;;;;35.83;14.18;;;2.00;90.10;;;;;;5055094;28;20222;-82
2021/01/16 02:15:27;;;;;;;32.42;13.85;;;2.00;89.90;;;;;;5055211;28;20227;-82
2021/01/16 02:18:06;;;;;;;36.75;14.23;;;1.90;90.10;;;;;;5054826;28;20830;-83
2021/01/16 02:20:36;;;;;;;39.97;14.63;;;2.00;90.10;;;;;;5054722;28;20252;-83
2021/01/16 02:23:11;;;;;;;35.90;13.50;;;2.00;90.10;;;;;;5054386;28;20180;-82
2021/01/16 02:25:40;;;;;;;27.17;12.02;;;2.00;89.90;;;;;;5053918;28;20210;-82
2021/01/16 02:28:10;;;;;;;33.00;12.35;;;2.00;89.20;;;;;;5053909;28;20212;-81
2021/01/16 02:30:39;;;;;;;35.38;13.10;;;2.00;89.50;;;;;;5055837;28;20181;-81
2021/01/16 02:33:08;;;;;;;38.67;13.60;;;2.00;89.50;;;;;;5055204;28;20173;-81
2021/01/16 02:35:57;;;;;;;27.88;13.38;;;2.00;89.60;;;;;;5055905;28;20175;-81
2021/01/16 02:38:39;;;;;;;37.65;13.32;;;2.00;89.90;;;;;;5055719;28;20208;-81
2021/01/16 02:41:20;;;;;;;37.78;13.80;;;2.00;90.10;;;;;;5055548;28;20165;-81
2021/01/16 02:43:59;;;;;;;35.22;13.80;;;2.10;90.10;;;;;;5055125;28;20596;-81
2021/01/16 02:46:36;;;;;;;33.78;13.50;;;2.10;89.80;;;;;;5057123;28;20280;-80
2021/01/16 02:49:17;;;;;;;31.98;13.77;;;2.10;89.80;;;;;;5056503;28;20196;-81
2021/01/16 02:52:06;;;;;;;31.92;12.07;;;2.00;90.10;;;;;;5055848;28;20195;-80
2021/01/16 02:54:39;;;;;;;35.45;12.80;;;2.10;90.20;;;;;;5054906;28;20169;-82
2021/01/16 02:57:08;;;;;;;30.67;14.75;;;2.10;90.10;;;;;;5054275;28;20204;-82
2021/01/16 02:59:36;;;;;;;38.33;12.93;;;2.10;90.20;;;;;;5054281;28;20657;-81
2021/01/16 03:02:05;;;;;;;32.50;12.93;;;2.20;90.30;;;;;;5040082;28;20169;-81
2021/01/16 03:04:31;;;;;;;35.13;13.93;;;2.20;90.10;;;;;;5056440;28;20173;-81
2021/01/16 03:06:59;;;;;;;33.15;12.48;;;2.20;90.10;;;;;;5053915;28;20204;-81
2021/01/16 03:09:26;;;;;;;32.35;14.40;;;2.20;89.80;;;;;;5054361;28;20199;-82
2021/01/16 03:11:52;;;;;;;40.45;14.05;;;2.20;90.10;;;;;;5055322;28;20692;-81
2021/01/16 03:14:20;;;;;;;36.22;13.48;;;2.20;90.20;;;;;;5069977;23;20213;-82
2021/01/16 03:17:05;;;;;;;34.53;13.57;;;2.30;90.30;;;;;;5027150;28;20170;-83
2021/01/16 03:19:33;;;;;;;35.03;12.70;;;2.30;89.90;;;;;;5024323;28;20188;-84
2021/01/16 03:21:59;;;;;;;38.65;14.30;;;2.30;89.20;;;;;;5027007;28;20169;-84
2021/01/16 03:24:26;;;;;;;37.35;15.13;;;2.30;89.40;;;;;;5029149;28;20227;-84
2021/01/16 03:26:51;;;;;;;37.13;14.00;;;2.30;89.90;;;;;;5028402;28;20569;-84
2021/01/16 03:29:17;;;;;;;39.93;14.47;;;2.30;90.10;;;;;;5028196;28;20212;-84
2021/01/16 03:31:43;;;;;;;47.40;14.27;;;2.30;90.10;;;;;;5028133;28;20401;-84
2021/01/16 03:34:09;;;;;;;35.37;14.57;;;2.30;89.90;;;;;;5028563;28;20439;-84
2021/01/16 03:36:34;;;;;;;38.90;13.77;;;2.30;89.80;;;;;;5028303;28;20169;-82
2021/01/16 03:39:00;;;;;;;37.97;16.00;;;2.30;89.50;;;;;;5028048;28;20419;-84
2021/01/16 03:41:26;;;;;;;34.70;13.90;;;2.20;90.10;;;;;;5028344;28;20435;-83
2021/01/16 03:43:52;;;;;;;43.33;16.00;;;2.20;90.10;;;;;;5033357;28;20474;-84
2021/01/16 03:46:17;;;;;;;42.37;14.87;;;2.20;89.90;;;;;;5038905;28;20170;-84
2021/01/16 03:48:43;;;;;;;41.77;13.90;;;2.20;90.10;;;;;;5035911;28;20201;-84
2021/01/16 03:51:09;;;;;;;44.70;15.80;;;2.10;90.30;;;;;;5033101;28;20196;-84
2021/01/16 03:53:35;;;;;;;34.63;14.03;;;2.20;90.80;;;;;;5037183;28;20413;-84
2021/01/16 03:56:01;;;;;;;38.50;13.77;;;2.20;90.70;;;;;;5038139;28;20417;-83
2021/01/16 03:58:26;;;;;;;35.80;14.77;;;2.20;90.70;;;;;;5029264;28;20531;-84
2021/01/16 04:00:52;;;;;;;32.77;14.23;;;2.30;90.70;;;;;;5035526;28;20412;-84
2021/01/16 04:03:18;;;;;;;34.03;11.83;;;2.30;90.80;;;;;;5035512;28;20177;-84
2021/01/16 04:05:44;;;;;;;33.10;15.67;;;2.30;90.50;;;;;;5032624;28;20413;-83
2021/01/16 04:08:09;;;;;;;40.10;14.03;;;2.30;90.40;;;;;;5035288;28;20229;-83
2021/01/16 04:10:35;;;;;;;34.77;13.33;;;2.30;90.10;;;;;;5034834;28;20774;-84
2021/01/16 04:13:01;;;;;;;36.30;13.20;;;2.40;89.80;;;;;;5034124;28;20247;-84
2021/01/16 04:15:27;;;;;;;38.17;14.43;;;2.40;89.80;;;;;;5031592;28;20448;-84
2021/01/16 04:17:52;;;;;;;35.77;13.90;;;2.40;89.10;;;;;;5035714;28;20607;-84
2021/01/16 04:20:18;;;;;;;33.43;14.00;;;2.30;89.20;;;;;;5039778;28;20177;-84
2021/01/16 04:22:44;;;;;;;34.50;15.40;;;2.20;89.40;;;;;;5043954;28;20420;-84
2021/01/16 04:25:10;;;;;;;43.50;16.30;;;2.20;89.90;;;;;;5044592;28;20467;-84
2021/01/16 04:27:36;;;;;;;46.60;15.43;;;2.20;89.90;;;;;;5043446;28;20439;-84
2021/01/16 04:30:04;;;;;;;45.33;15.75;;;2.10;90.10;;;;;;5042818;28;20503;-84
2021/01/16 04:32:29;;;;;;;41.15;16.20;;;2.10;90.30;;;;;;5042943;28;20180;-84
2021/01/16 04:34:55;;;;;;;46.73;17.60;;;2.10;90.20;;;;;;5043989;28;20605;-84
2021/01/16 04:37:21;;;;;;;42.27;14.40;;;2.00;90.40;;;;;;5044491;28;20685;-84
2021/01/16 04:39:47;;;;;;;44.93;14.90;;;2.00;90.70;;;;;;5039283;28;20427;-84
2021/01/16 04:42:14;;;;;;;37.60;14.13;;;2.00;90.70;;;;;;5042458;28;20412;-85
2021/01/16 04:44:43;;;;;;;35.90;13.43;;;2.10;90.60;;;;;;5045015;28;20166;-83
2021/01/16 04:47:28;;;;;;;38.22;15.50;;;2.10;90.50;;;;;;5044560;28;20194;-84
2021/01/16 04:49:58;;;;;;;43.30;16.17;;;2.10;90.40;;;;;;5043959;28;20257;-84
2021/01/16 04:52:27;;;;;;;45.28;16.80;;;2.00;90.30;;;;;;5043676;28;20159;-83
2021/01/16 04:54:54;;;;;;;47.30;16.20;;;2.00;90.70;;;;;;5043399;28;20200;-84
2021/01/16 04:57:23;;;;;;;44.25;15.45;;;1.90;91.20;;;;;;5043247;28;20200;-83
2021/01/16 04:59:49;;;;;;;41.05;15.63;;;1.90;91.00;;;;;;5042791;28;20177;-83
2021/01/16 05:02:15;;;;;;;43.83;15.80;;;1.90;91.00;;;;;;5043027;28;20182;-84
2021/01/16 05:04:45;;;;;;;38.90;15.55;;;2.00;91.00;;;;;;5043324;28;20193;-84
2021/01/16 05:07:12;;;;;;;41.58;16.15;;;2.00;91.00;;;;;;5043304;28;20248;-84
2021/01/16 05:09:40;;;;;;;37.92;15.98;;;2.00;90.70;;;;;;5042944;28;20228;-84
2021/01/16 05:12:06;;;;;;;43.00;15.52;;;2.10;90.30;;;;;;5043588;28;20178;-84
2021/01/16 05:14:56;;;;;;;45.93;14.50;;;2.00;90.40;;;;;;5042877;28;20217;-84
2021/01/16 05:17:24;;;;;;;43.03;15.18;;;2.00;90.50;;;;;;5043342;28;20185;-84
2021/01/16 05:19:51;;;;;;;30.40;13.38;;;2.00;90.20;;;;;;5042888;28;20174;-84
2021/01/16 05:22:18;;;;;;;43.40;15.52;;;2.00;90.20;;;;;;5042839;28;20182;-84
2021/01/16 05:24:43;;;;;;;44.25;15.63;;;2.00;90.70;;;;;;5042875;28;20174;-84
2021/01/16 05:27:19;;;;;;;37.20;13.90;;;2.00;90.80;;;;;;5042132;28;20248;-84
2021/01/16 05:29:45;;;;;;;42.30;14.93;;;2.10;90.70;;;;;;5042911;28;20862;-84
2021/01/16 05:32:12;;;;;;;39.50;15.00;;;2.10;90.30;;;;;;5043080;28;20174;-84
2021/01/16 05:34:38;;;;;;;45.85;15.80;;;2.10;90.10;;;;;;5042626;28;20649;-84
2021/01/16 05:37:04;;;;;;;40.17;14.77;;;2.00;89.40;;;;;;5042689;28;20309;-84
2021/01/16 05:39:33;;;;;;;42.73;14.23;;;1.80;89.40;;;;;;5041430;28;20507;-84
2021/01/16 05:42:04;;;;;;;37.95;16.35;;;1.80;90.10;;;;;;5042579;28;20172;-84
2021/01/16 05:44:30;;;;;;;40.35;15.48;;;1.80;90.10;;;;;;5041597;28;20188;-84
2021/01/16 05:46:57;;;;;;;43.13;16.67;;;1.80;90.30;;;;;;5042121;28;20193;-85
2021/01/16 05:49:26;;;;;;;38.60;13.80;;;1.80;90.10;;;;;;5041322;28;20201;-84
2021/01/16 05:51:53;;;;;;;37.38;14.38;;;1.80;90.10;;;;;;5041607;28;20619;-84
2021/01/16 05:54:20;;;;;;;37.08;16.45;;;1.80;90.10;;;;;;5042454;28;20650;-83
2021/01/16 05:56:48;;;;;;;39.35;15.65;;;1.90;90.10;;;;;;5042564;28;20174;-84
2021/01/16 05:59:19;;;;;;;47.70;14.95;;;1.90;89.80;;;;;;5042089;28;20634;-84
2021/01/16 06:01:51;;;;;;;45.88;16.05;;;1.90;89.50;;;;;;5042686;28;20221;-84
2021/01/16 06:04:19;;;;;;;49.22;15.25;;;2.00;89.60;;;;;;5042632;28;20166;-84
2021/01/16 06:06:46;;;;;;;35.70;13.70;;;2.00;89.50;;;;;;5042659;28;20200;-84
2021/01/16 06:09:19;;;;;;;39.10;15.45;;;2.00;88.80;;;;;;5042762;28;20248;-84
2021/01/16 06:11:50;;;;;;;42.22;14.65;;;1.90;89.40;;;;;;5042059;28;20261;-84
2021/01/16 06:14:17;;;;;;;40.72;14.27;;;2.00;88.80;;;;;;5042426;28;20201;-83
2021/01/16 06:16:54;;;;;;;35.17;14.38;;;1.90;88.80;;;;;;5042088;28;20269;-84
2021/01/16 06:19:25;;;;;;;48.85;15.90;;;1.90;88.80;;;;;;5041678;28;20177;-84
2021/01/16 06:21:52;;;;;;;37.95;14.48;;;1.90;89.20;;;;;;5042154;28;20177;-84
2021/01/16 06:24:22;;;;;;;45.15;16.67;;;1.90;89.20;;;;;;5042495;28;20178;-84
2021/01/16 06:26:59;;;;;;;42.38;15.80;;;1.80;89.60;;;;;;5042460;28;20174;-84
2021/01/16 06:29:28;;;;;;;44.03;15.15;;;1.70;90.10;;;;;;5041745;28;20208;-84
2021/01/16 06:32:05;;;;;;;40.28;15.02;;;1.70;90.40;;;;;;5041263;28;20265;-84
2021/01/16 06:34:38;;;;;;;46.75;16.15;;;1.70;90.40;;;;;;5041334;28;20257;-84
2021/01/16 06:37:12;;;;;;;51.20;16.73;;;1.60;90.50;;;;;;5042676;28;20265;-84
2021/01/16 06:39:42;;;;;;;43.90;13.98;;;1.60;90.60;;;;;;5041690;28;20197;-84
2021/01/16 06:42:22;;;;;;;49.20;17.92;;;1.60;90.70;;;;;;5041145;28;20197;-84
2021/01/16 06:45:00;;;;;;;45.97;18.35;;;1.60;90.80;;;;;;5041843;28;20212;-84
2021/01/16 06:47:26;;;;;;;46.28;17.70;;;1.40;91.10;;;;;;5042409;28;20239;-84
2021/01/16 06:49:58;;;;;;;47.70;16.92;;;1.40;91.30;;;;;;5043014;28;20201;-84
2021/01/16 06:52:32;;;;;;;48.67;17.38;;;1.40;91.30;;;;;;5043003;28;20169;-84
2021/01/16 06:54:57;;;;;;;46.88;16.52;;;1.50;91.40;;;;;;5041817;28;20539;-84
2021/01/16 06:57:23;;;;;;;55.27;18.10;;;1.60;91.20;;;;;;5042058;28;20224;-84
2021/01/16 06:59:50;;;;;;;44.63;17.30;;;1.70;90.90;;;;;;5047159;28;20931;-84
2021/01/16 07:02:26;;;;;;;52.15;19.85;;;1.70;90.50;;;;;;5047639;28;20462;-84
2021/01/16 07:04:55;;;;;;;42.60;15.63;;;1.80;90.50;;;;;;5045070;28;20166;-83
2021/01/16 07:07:29;;;;;;;54.10;18.90;;;1.90;90.40;;;;;;5044191;28;20190;-85
2021/01/16 07:10:01;;;;;;;44.25;16.20;;;1.90;90.30;;;;;;5044059;28;20203;-84
2021/01/16 07:12:27;;;;;;;40.60;15.85;;;1.90;89.50;;;;;;5043304;28;20265;-83
2021/01/16 07:14:52;;;;;;;45.17;16.35;;;2.00;89.80;;;;;;5035321;28;20189;-82
2021/01/16 07:17:24;;;;;;;46.60;16.43;;;2.00;89.80;;;;;;5030579;28;20284;-85
2021/01/16 07:19:50;;;;;;;45.83;17.15;;;2.00;89.60;;;;;;5028372;28;20478;-83
2021/01/16 07:22:16;;;;;;;42.78;16.17;;;2.10;89.40;;;;;;5026781;28;20237;-82
2021/01/16 07:24:43;;;;;;;42.42;16.48;;;2.10;89.60;;;;;;5027711;28;20188;-82
2021/01/16 07:27:12;;;;;;;47.30;15.88;;;2.10;89.20;;;;;;5026416;28;20190;-83
2021/01/16 07:29:41;;;;;;;47.88;18.40;;;2.20;88.80;;;;;;5028097;28;20735;-84
2021/01/16 07:32:14;;;;;;;42.38;14.45;;;2.10;88.70;;;;;;5025976;28;20204;-85
2021/01/16 07:34:45;;;;;;;41.58;16.50;;;2.20;88.50;;;;;;5026090;28;20261;-84
2021/01/16 07:37:12;;;;;;;43.72;15.50;;;2.10;88.10;;;;;;5025300;28;20190;-82
2021/01/16 07:39:40;;;;;;;51.47;18.10;;;2.10;88.80;;;;;;5025706;28;20202;-83
2021/01/16 07:42:15;;;;;;;43.53;15.30;;;2.00;88.90;;;;;;5025156;28;20177;-82
2021/01/16 07:44:45;;;;;;;42.25;15.13;;;2.00;89.20;;;;;;5025080;28;20200;-83
2021/01/16 07:47:22;;;;;;;42.47;15.95;;;2.00;89.20;;;;;;5025642;28;20194;-83
2021/01/16 07:49:54;;;;;;;44.53;15.20;;;2.00;89.40;;;;;;5025423;28;20193;-84
2021/01/16 07:52:25;;;;;;;44.78;16.42;;;2.00;88.80;;;;;;5023922;28;20173;-84
2021/01/16 07:55:06;;;;;;;46.72;15.68;;;2.00;88.50;;;;;;5024351;28;20568;-83
2021/01/16 07:57:33;;;;;;;46.80;18.42;;;2.00;88.70;;;;;;5024412;28;20189;-84
2021/01/16 08:00:09;;;;;;;44.05;14.30;;;2.00;88.70;;;;;;5024526;28;20174;-84
2021/01/16 08:03:14;;;;;;;46.03;17.20;;;1.90;88.90;;;;;;5024862;28;20181;-84
2021/01/16 08:05:59;;;;;;;39.30;14.32;;;1.90;88.90;;;;;;5024581;28;20176;-84
2021/01/16 08:08:55;;;;;;;41.10;15.43;;;1.90;89.20;;;;;;5024256;28;20201;-84
2021/01/16 08:11:32;;;;;;;38.22;14.93;;;1.90;89.80;;;;;;5024013;28;20178;-84
2021/01/16 08:14:03;;;;;;;40.05;16.38;;;1.80;89.50;;;;;;5024213;28;20503;-84
2021/01/16 08:16:30;;;;;;;38.90;14.27;;;1.90;90.10;;;;;;5025167;28;20162;-84
2021/01/16 08:19:14;;;;;;;40.63;16.83;;;1.80;89.90;;;;;;5024349;28;20194;-84
2021/01/16 08:22:00;;;;;;;33.78;13.80;;;1.80;89.90;;;;;;5024268;28;20205;-84
2021/01/16 08:24:28;;;;;;;43.53;15.10;;;1.80;90.10;;;;;;5024082;28;20185;-84
2021/01/16 08:27:04;;;;;;;43.38;15.68;;;1.80;90.40;;;;;;5024919;28;20538;-84
2021/01/16 08:29:32;;;;;;;38.38;14.85;;;1.90;90.30;;;;;;5022807;28;20201;-84
2021/01/16 08:32:11;;;;;;;53.67;17.02;;;1.90;90.10;;;;;;5023138;28;20264;-84
2021/01/16 08:34:56;;;;;;;49.75;18.80;;;2.00;90.20;;;;;;5023991;28;20169;-84
2021/01/16 08:37:27;;;;;;;47.03;15.10;;;2.10;90.50;;;;;;5023057;28;20240;-84
2021/01/16 08:39:54;;;;;;;43.00;16.52;;;2.20;90.50;;;;;;5022349;28;20603;-84
2021/01/16 08:42:25;;;;;;;42.90;15.88;;;2.20;90.50;;;;;;5022535;28;20169;-83
2021/01/16 08:44:55;;;;;;;37.13;14.77;;;2.30;90.60;;;;;;5022115;28;20178;-84
2021/01/16 08:47:22;;;;;;;40.65;16.35;;;2.30;90.40;;;;;;5023062;28;20617;-84
2021/01/16 08:49:49;;;;;;;43.92;16.08;;;2.30;89.90;;;;;;5023512;28;20210;-84
2021/01/16 08:52:31;;;;;;;39.53;16.00;;;2.40;89.40;;;;;;5023976;28;20170;-84
2021/01/16 08:55:02;;;;;;;43.70;16.38;;;2.40;90.10;;;;;;5023672;28;20237;-84
2021/01/16 08:57:29;;;;;;;62.00;18.13;;;2.40;90.40;;;;;;5022929;28;20202;-84
2021/01/16 08:59:55;;;;;;;50.95;18.73;;;2.40;90.50;;;;;;5023655;28;20204;-84
2021/01/16 09:02:21;;;;;;;45.95;18.15;;;2.40;90.70;;;;;;5022968;28;20731;-84
2021/01/16 09:04:47;;;;;;;53.53;19.75;;;2.50;91.20;;;;;;5023088;28;20267;-84
2021/01/16 09:07:22;;;;;;;40.60;15.63;;;2.50;91.10;;;;;;5022319;28;20198;-84
2021/01/16 09:09:59;;;;;;;46.05;16.75;;;2.50;91.00;;;;;;5023092;28;20197;-84
2021/01/16 09:12:42;;;;;;;42.25;16.05;;;2.50;91.20;;;;;;5022312;28;20166;-84
2021/01/16 09:15:18;;;;;;;38.60;15.77;;;2.50;90.50;;;;;;5022516;28;20276;-84
2021/01/16 09:18:02;;;;;;;40.92;15.95;;;2.50;90.40;;;;;;5021722;28;20208;-84
2021/01/16 09:20:29;;;;;;;39.33;16.08;;;2.50;90.10;;;;;;5021225;28;20201;-84
2021/01/16 09:22:55;;;;;;;58.10;19.02;;;2.40;90.10;;;;;;5021157;28;20716;-84
2021/01/16 09:25:25;;;;;;;39.87;15.20;;;2.40;90.20;;;;;;5018765;28;20173;-85
2021/01/16 09:27:53;;;;;;;34.05;14.18;;;2.40;90.10;;;;;;5017674;28;20425;-85
2021/01/16 09:30:25;;;;;;;36.08;14.93;;;2.40;89.80;;;;;;5017715;28;20239;-85
2021/01/16 09:32:51;;;;;;;37.95;15.27;;;2.50;90.20;;;;;;5017703;28;20180;-85
2021/01/16 09:35:38;;;;;;;39.78;13.00;;;2.50;89.90;;;;;;5017850;28;20182;-85
2021/01/16 09:38:15;;;;;;;32.42;13.35;;;2.50;89.10;;;;;;5017664;28;20244;-85
2021/01/16 09:40:41;;;;;;;39.55;15.20;;;2.50;89.20;;;;;;5017700;28;20215;-85
2021/01/16 09:43:21;;;;;;;34.67;13.60;;;2.50;89.80;;;;;;5017722;28;20178;-85
2021/01/16 09:45:58;;;;;;;36.67;15.30;;;2.50;89.60;;;;;;5017470;28;20938;-85
2021/01/16 09:48:42;;;;;;;43.17;17.67;;;2.50;89.10;;;;;;5017653;28;20272;-85
2021/01/16 09:51:12;;;;;;;39.92;14.73;;;2.50;88.90;;;;;;5017818;28;20249;-85
2021/01/16 09:53:40;;;;;;;34.30;13.75;;;2.40;89.10;;;;;;5017669;28;20260;-85
2021/01/16 09:56:07;;;;;;;41.38;14.48;;;2.30;89.50;;;;;;5017141;28;20173;-85
2021/01/16 09:58:42;;;;;;;48.58;16.73;;;2.40;90.40;;;;;;5017465;28;20198;-85
2021/01/16 10:01:29;;;;;;;44.83;14.68;;;2.50;90.40;;;;;;5016799;28;20239;-85
2021/01/16 10:04:04;;;;;;;41.47;14.23;;;2.30;89.80;;;;;;5017034;28;20181;-85
2021/01/16 10:06:36;;;;;;;44.20;14.82;;;2.40;90.30;;;;;;5016758;28;20174;-85
2021/01/16 10:09:20;;;;;;;36.03;14.25;;;2.50;90.50;;;;;;5017197;28;20338;-83
2021/01/16 10:11:47;;;;;;;40.90;15.90;;;2.50;89.50;;;;;;5016681;28;20162;-85
2021/01/16 10:14:17;;;;;;;44.85;16.02;;;2.60;89.60;;;;;;5016608;28;20658;-83
2021/01/16 10:16:47;;;;;;;45.83;17.10;;;2.60;89.90;;;;;;5017382;28;20205;-83
2021/01/16 10:19:16;;;;;;;44.83;17.35;;;2.70;90.60;;;;;;5017534;28;20528;-83
2021/01/16 10:22:01;;;;;;;47.15;17.77;;;2.70;90.80;;;;;;5017438;28;20177;-83
2021/01/16 10:24:27;;;;;;;43.33;17.27;;;2.70;91.00;;;;;;5017200;28;20654;-83
2021/01/16 10:26:53;;;;;;;40.42;13.98;;;2.60;90.40;;;;;;5016770;28;20610;-83
2021/01/16 10:29:27;;;;;;;32.03;12.65;;;2.50;89.20;;;;;;5017100;28;20194;-83
2021/01/16 10:31:53;;;;;;;38.55;12.82;;;2.60;88.80;;;;;;5016891;28;20165;-83
2021/01/16 10:34:19;;;;;;;32.53;13.67;;;2.70;87.10;;;;;;5017424;28;20174;-83
2021/01/16 10:36:46;;;;;;;25.55;10.75;;;2.70;86.60;;;;;;5016724;28;20412;-83
2021/01/16 10:39:16;;;;;;;34.80;12.02;;;2.70;87.00;;;;;;5016479;28;20181;-83
2021/01/16 10:41:44;;;;;;;40.17;14.18;;;2.60;85.10;;;;;;5016460;28;20663;-83
2021/01/16 10:44:12;;;;;;;33.65;13.50;;;2.70;85.80;;;;;;5016626;28;20170;-83
2021/01/16 10:46:46;;;;;;;48.10;16.25;;;2.70;86.60;;;;;;5017395;28;20660;-83
2021/01/16 10:49:21;;;;;;;52.95;18.70;;;2.70;87.70;;;;;;5016912;28;20197;-83
2021/01/16 10:51:47;;;;;;;47.78;18.63;;;2.80;89.40;;;;;;5017010;28;20169;-83
2021/01/16 10:54:14;;;;;;;50.13;17.13;;;2.70;88.70;;;;;;5017547;28;20216;-83
2021/01/16 10:56:44;;;;;;;47.22;15.50;;;2.60;90.20;;;;;;5017771;28;20178;-83
2021/01/16 10:59:11;;;;;;;48.78;19.10;;;2.50;90.80;;;;;;5017170;28;20174;-83
2021/01/16 11:01:45;;;;;;;41.05;17.60;;;2.30;90.70;;;;;;5017119;28;20173;-83
2021/01/16 11:04:38;;;;;;;53.22;19.60;;;2.10;91.60;;;;;;5017440;28;20170;-83
2021/01/16 11:07:08;;;;;;;49.97;16.88;;;2.00;91.50;;;;;;5017393;28;20205;-83
2021/01/16 11:09:34;;;;;;;46.83;16.85;;;1.90;92.00;;;;;;5017623;28;20200;-83
2021/01/16 11:12:05;;;;;;;48.00;17.50;;;2.00;92.30;;;;;;5017896;28;20170;-83
2021/01/16 11:14:42;;;;;;;49.35;17.27;;;1.90;91.80;;;;;;5017650;28;20428;-83
2021/01/16 11:17:12;;;;;;;45.03;17.27;;;1.80;91.70;;;;;;5017661;28;20199;-83
2021/01/16 11:19:43;;;;;;;43.30;17.70;;;1.90;91.80;;;;;;5020833;28;20188;-83
2021/01/16 11:22:10;;;;;;;44.38;18.30;;;1.90;91.70;;;;;;5019601;28;20203;-83
2021/01/16 11:24:52;;;;;;;46.28;16.77;;;2.00;91.40;;;;;;5018487;28;20276;-83
2021/01/16 11:27:28;;;;;;;39.60;15.55;;;2.00;91.50;;;;;;5018609;28;20202;-84
2021/01/16 11:30:03;;;;;;;44.20;17.65;;;2.00;91.40;;;;;;5017874;28;20193;-83
2021/01/16 11:32:35;;;;;;;40.50;16.50;;;2.00;91.70;;;;;;5018127;28;20639;-83
2021/01/16 11:35:07;;;;;;;44.08;18.45;;;2.20;91.00;;;;;;5017950;28;20158;-83
2021/01/16 11:37:46;;;;;;;43.22;16.23;;;2.10;90.10;;;;;;5018372;28;20190;-83
2021/01/16 11:40:24;;;;;;;55.58;18.52;;;2.10;90.10;;;;;;5019001;28;20177;-83
2021/01/16 11:42:55;;;;;;;48.08;17.83;;;2.20;89.80;;;;;;5020386;28;20184;-83
2021/01/16 11:45:25;;;;;;;46.90;17.02;;;2.20;89.40;;;;;;5022414;28;20173;-83
2021/01/16 11:47:56;;;;;;;33.67;15.63;;;2.20;89.80;;;;;;5021820;28;20194;-83
2021/01/16 11:50:24;;;;;;;40.67;15.57;;;2.20;90.10;;;;;;5021460;28;20181;-83
2021/01/16 11:52:49;;;;;;;42.38;17.45;;;2.20;89.40;;;;;;5021643;28;20166;-84
2021/01/16 11:55:17;;;;;;;42.00;15.50;;;2.20;89.50;;;;;;5039551;28;20227;-83
2021/01/16 11:57:44;;;;;;;41.80;15.35;;;2.20;90.10;;;;;;5022350;28;20225;-83
2021/01/16 12:00:11;;;;;;;47.40;16.38;;;2.40;89.40;;;;;;5021968;28;20196;-83
2021/01/16 12:02:38;;;;;;;46.25;16.80;;;2.40;89.40;;;;;;5021811;28;20173;-83
2021/01/16 12:05:12;;;;;;;38.58;14.90;;;2.50;88.80;;;;;;5022100;28;20260;-83
2021/01/16 12:07:38;;;;;;;45.72;16.92;;;2.50;87.60;;;;;;5021499;28;20274;-83
2021/01/16 12:10:05;;;;;;;30.17;13.65;;;2.40;87.40;;;;;;5022080;28;20202;-83
2021/01/16 12:12:32;;;;;;;38.10;15.20;;;2.40;88.30;;;;;;5021828;28;20259;-83
2021/01/16 12:15:00;;;;;;;46.13;17.17;;;2.40;88.30;;;;;;5022350;28;20189;-83
2021/01/16 12:17:29;;;;;;;40.53;15.77;;;2.40;88.40;;;;;;5022341;28;20194;-83
2021/01/16 12:19:55;;;;;;;46.05;17.17;;;2.50;88.70;;;;;;5022257;28;20178;-83
2021/01/16 12:22:22;;;;;;;39.78;16.15;;;2.50;87.30;;;;;;5022694;28;20170;-82
2021/01/16 12:24:48;;;;;;;42.83;16.05;;;2.50;87.60;;;;;;5021987;28;20174;-83
2021/01/16 12:27:15;;;;;;;44.63;17.40;;;2.30;87.30;;;;;;5021808;28;20198;-83
2021/01/16 12:29:44;;;;;;;41.05;15.32;;;2.30;87.70;;;;;;5022573;28;20726;-83
2021/01/16 12:32:12;;;;;;;44.53;16.60;;;2.20;88.00;;;;;;5022730;28;20173;-83
2021/01/16 12:34:45;;;;;;;42.08;17.25;;;2.20;88.90;;;;;;5023403;28;20189;-82
2021/01/16 12:37:12;;;;;;;47.75;17.30;;;2.10;89.10;;;;;;5022505;28;20217;-83
2021/01/16 12:39:39;;;;;;;39.70;14.57;;;2.00;88.90;;;;;;5022009;28;20178;-83
2021/01/16 12:42:05;;;;;;;41.70;16.05;;;1.90;89.20;;;;;;5022759;28;20232;-83
2021/01/16 12:44:31;;;;;;;39.25;15.30;;;1.80;88.80;;;;;;5022621;28;20174;-83
2021/01/16 12:46:58;;;;;;;45.30;15.00;;;1.80;89.50;;;;;;5022466;28;20614;-83
2021/01/16 12:49:26;;;;;;;39.65;17.10;;;2.00;90.50;;;;;;5021582;28;20202;-83